createdAt,value
2018-07-09T00:00:15.030Z,101565.14
2018-07-09T00:02:42.278Z,101560.58
2018-07-09T00:05:09.421Z,101556.98
2018-07-09T00:07:36.427Z,101558.99
2018-07-09T00:10:03.467Z,101560.62
2018-07-09T00:12:30.496Z,101564.37
2018-07-09T00:14:57.526Z,101561.62
2018-07-09T00:17:24.518Z,101559.67
2018-07-09T00:19:51.630Z,101552.98
2018-07-09T00:22:18.715Z,101555.59
2018-07-09T00:24:45.791Z,101554.19
2018-07-09T00:27:13.084Z,101557.82
2018-07-09T00:29:40.111Z,101559.13
2018-07-09T00:32:07.222Z,101558.51
2018-07-09T00:34:34.246Z,101559.66
2018-07-09T00:37:01.251Z,101560.05
2018-07-09T00:39:28.341Z,101553.63
2018-07-09T00:41:55.383Z,101559.03
2018-07-09T00:44:22.400Z,101560.20
2018-07-09T00:46:49.666Z,101556.24
2018-07-09T00:49:16.786Z,101555.34
2018-07-09T00:51:43.811Z,101550.38
2018-07-09T00:54:10.858Z,101554.63
2018-07-09T00:56:37.848Z,101556.34
2018-07-09T00:59:04.856Z,101554.74
2018-07-09T01:01:31.894Z,101554.20
2018-07-09T01:03:58.994Z,101557.95
2018-07-09T01:06:25.980Z,101553.96
2018-07-09T01:08:53.022Z,101554.74
2018-07-09T01:11:31.477Z,101558.44
2018-07-09T01:13:58.505Z,101557.17
2018-07-09T01:16:25.508Z,101553.05
2018-07-09T01:18:52.553Z,101549.49
2018-07-09T01:21:19.606Z,101553.36
2018-07-09T01:23:46.648Z,101550.77
2018-07-09T01:26:13.664Z,101551.28
2018-07-09T01:28:41.441Z,101550.59
2018-07-09T01:31:08.478Z,101545.95
2018-07-09T01:33:37.345Z,101540.05
2018-07-09T01:36:04.395Z,101540.17
2018-07-09T01:38:31.489Z,101538.22
2018-07-09T01:40:58.532Z,101533.88
2018-07-09T01:43:25.560Z,101535.92
2018-07-09T01:45:52.636Z,101537.53
2018-07-09T01:48:19.662Z,101533.92
2018-07-09T01:50:46.824Z,101525.52
2018-07-09T01:53:13.825Z,101524.59
2018-07-09T01:55:40.897Z,101530.19
2018-07-09T01:58:07.896Z,101526.33
2018-07-09T02:00:35.208Z,101528.41
2018-07-09T02:03:02.225Z,101525.64
2018-07-09T02:05:29.350Z,101523.52
2018-07-09T02:07:56.459Z,101529.55
2018-07-09T02:10:23.493Z,101527.98
2018-07-09T02:12:50.509Z,101523.25
2018-07-09T02:15:17.921Z,101519.92
2018-07-09T02:17:45.038Z,101516.74
2018-07-09T02:20:12.127Z,101517.27
2018-07-09T02:22:39.133Z,101509.59
2018-07-09T02:25:11.623Z,101508.33
2018-07-09T02:27:41.088Z,101507.34
2018-07-09T02:30:08.120Z,101507.89
2018-07-09T02:32:35.211Z,101499.57
2018-07-09T02:35:02.412Z,101498.31
2018-07-09T02:37:29.422Z,101503.11
2018-07-09T02:39:56.422Z,101505.50
2018-07-09T02:42:23.438Z,101503.94
2018-07-09T02:44:50.458Z,101499.13
2018-07-09T02:47:17.545Z,101502.24
2018-07-09T02:49:44.565Z,101494.31
2018-07-09T02:52:12.422Z,101489.63
2018-07-09T02:54:39.427Z,101492.14
2018-07-09T02:57:06.448Z,101489.67
2018-07-09T02:59:33.500Z,101485.59
2018-07-09T03:02:00.501Z,101484.59
2018-07-09T03:04:27.679Z,101489.85
2018-07-09T03:06:54.812Z,101498.17
2018-07-09T03:09:21.818Z,101498.83
2018-07-09T03:11:48.889Z,101504.37
2018-07-09T03:14:15.933Z,101506.33
2018-07-09T03:16:42.890Z,101509.33
2018-07-09T03:19:09.943Z,101517.79
2018-07-09T03:21:36.932Z,101514.70
2018-07-09T03:24:03.981Z,101510.94
2018-07-09T03:26:31.026Z,101514.19
2018-07-09T03:28:58.030Z,101516.19
2018-07-09T03:31:25.065Z,101516.84
2018-07-09T03:33:52.064Z,101518.09
2018-07-09T03:36:19.093Z,101515.01
2018-07-09T03:38:46.206Z,101510.94
2018-07-09T03:41:13.294Z,101504.86
2018-07-09T03:43:40.285Z,101507.77
2018-07-09T03:46:07.287Z,101504.59
2018-07-09T03:48:34.301Z,101503.08
2018-07-09T03:51:01.318Z,101507.54
2018-07-09T03:53:28.316Z,101500.80
2018-07-09T03:55:55.341Z,101500.87
2018-07-09T03:58:22.341Z,101506.59
2018-07-09T04:00:49.341Z,101498.98
2018-07-09T04:03:17.828Z,101504.02
2018-07-09T04:05:46.383Z,101496.64
2018-07-09T04:08:13.518Z,101487.09
2018-07-09T04:10:41.966Z,101483.72
2018-07-09T04:13:09.120Z,101478.61
2018-07-09T04:15:36.287Z,101483.27
2018-07-09T04:18:03.296Z,101482.80
2018-07-09T04:20:30.317Z,101464.18
2018-07-09T04:22:57.318Z,101481.18
2018-07-09T04:25:25.423Z,101480.89
2018-07-09T04:27:52.420Z,101484.34
2018-07-09T04:30:19.429Z,101480.63
2018-07-09T04:32:46.436Z,101478.89
2018-07-09T04:35:20.463Z,101483.27
2018-07-09T04:37:47.751Z,101477.75
2018-07-09T04:40:14.749Z,101477.16
2018-07-09T04:42:41.725Z,101475.91
2018-07-09T04:45:08.809Z,101474.91
2018-07-09T04:47:35.796Z,101476.05
2018-07-09T04:50:03.560Z,101480.70
2018-07-09T04:52:31.448Z,101476.72
2018-07-09T04:54:58.501Z,101484.69
2018-07-09T04:57:25.667Z,101481.47
2018-07-09T04:59:52.677Z,101481.73
2018-07-09T05:02:19.789Z,101483.78
2018-07-09T05:04:47.857Z,101478.33
2018-07-09T05:07:15.057Z,101480.63
2018-07-09T05:09:42.096Z,101472.90
2018-07-09T05:12:09.215Z,101465.91
2018-07-09T05:14:36.299Z,101470.06
2018-07-09T05:17:03.445Z,101459.96
2018-07-09T05:19:30.500Z,101469.25
2018-07-09T05:21:57.526Z,101469.36
2018-07-09T05:24:24.620Z,101459.83
2018-07-09T05:26:52.009Z,101467.52
2018-07-09T05:29:19.029Z,101461.72
2018-07-09T05:31:46.136Z,101462.16
2018-07-09T05:34:13.240Z,101469.80
2018-07-09T05:36:40.268Z,101459.77
2018-07-09T05:39:07.604Z,101457.82
2018-07-09T05:41:34.701Z,101456.34
2018-07-09T05:44:02.177Z,101452.44
2018-07-09T05:46:29.255Z,101462.58
2018-07-09T05:48:57.041Z,101457.01
2018-07-09T05:51:24.322Z,101456.64
2018-07-09T05:53:51.414Z,101448.83
2018-07-09T05:56:18.541Z,101454.53
2018-07-09T05:58:45.588Z,101457.47
2018-07-09T06:01:12.857Z,101448.40
2018-07-09T06:03:40.052Z,101452.64
2018-07-09T06:06:07.222Z,101456.44
2018-07-09T06:08:34.365Z,101449.16
2018-07-09T06:11:01.545Z,101440.17
2018-07-09T06:13:29.324Z,101436.16
2018-07-09T06:15:56.476Z,101441.02
2018-07-09T06:18:23.730Z,101440.42
2018-07-09T06:20:50.853Z,101439.45
2018-07-09T06:23:18.383Z,101433.63
2018-07-09T06:25:45.452Z,101439.41
2018-07-09T06:28:12.672Z,101439.81
2018-07-09T06:30:39.906Z,101437.75
2018-07-09T06:33:06.925Z,101441.41
2018-07-09T06:35:33.941Z,101435.61
2018-07-09T06:38:01.736Z,101442.50
2018-07-09T06:40:29.052Z,101433.08
2018-07-09T06:42:57.794Z,101432.21
2018-07-09T06:45:25.725Z,101425.20
2018-07-09T06:47:52.816Z,101435.66
2018-07-09T06:50:19.940Z,101436.24
2018-07-09T06:52:47.157Z,101429.44
2018-07-09T06:55:14.393Z,101425.63
2018-07-09T06:57:41.780Z,101432.94
2018-07-09T07:00:08.816Z,101430.70
2018-07-09T07:02:35.926Z,101421.89
2018-07-09T07:05:02.965Z,101421.38
2018-07-09T07:07:30.022Z,101411.23
2018-07-09T07:09:57.019Z,101412.77
2018-07-09T07:12:24.037Z,101409.31
2018-07-09T07:14:51.258Z,101420.97
2018-07-09T07:17:18.311Z,101429.94
2018-07-09T07:19:45.350Z,101419.15
2018-07-09T07:22:12.397Z,101413.95
2018-07-09T07:24:39.392Z,101402.92
2018-07-09T07:27:06.454Z,101408.14
2018-07-09T07:29:33.501Z,101401.86
2018-07-09T07:32:00.522Z,101396.84
2018-07-09T07:34:27.579Z,101395.76
2018-07-09T07:36:54.740Z,101396.05
2018-07-09T07:39:21.833Z,101395.80
2018-07-09T07:41:48.799Z,101390.93
2018-07-09T07:44:15.990Z,101381.80
2018-07-09T07:46:43.214Z,101378.19
2018-07-09T07:49:10.249Z,101370.13
2018-07-09T07:51:37.807Z,101371.59
2018-07-09T07:56:38.932Z,101371.85
2018-07-09T07:59:05.976Z,101378.92
2018-07-09T08:01:32.998Z,101377.98
2018-07-09T08:04:00.985Z,101376.75
2018-07-09T08:06:28.001Z,101374.12
2018-07-09T08:08:55.098Z,101366.05
2018-07-09T08:11:47.688Z,101372.73
2018-07-09T08:13:49.354Z,101370.37
2018-07-09T08:16:16.424Z,101369.92
2018-07-09T08:18:43.573Z,101364.91
2018-07-09T08:21:10.658Z,101361.41
2018-07-09T08:23:37.830Z,101378.63
2018-07-09T08:26:04.925Z,101372.67
2018-07-09T08:28:32.075Z,101373.38
2018-07-09T08:30:59.404Z,101363.25
2018-07-09T08:33:26.405Z,101360.09
2018-07-09T08:35:53.476Z,101355.12
2018-07-09T08:38:20.686Z,101341.92
2018-07-09T08:40:47.775Z,101352.58
2018-07-09T08:43:14.986Z,101350.80
2018-07-09T08:45:42.145Z,101355.94
2018-07-09T08:48:10.733Z,101352.64
2018-07-09T08:50:37.825Z,101350.39
2018-07-09T08:53:05.082Z,101346.58
2018-07-09T08:55:32.194Z,101354.55
2018-07-09T08:57:59.220Z,101347.60
2018-07-09T09:00:26.262Z,101349.61
2018-07-09T09:02:53.285Z,101342.64
2018-07-09T09:05:21.263Z,101342.27
2018-07-09T09:07:48.303Z,101343.13
2018-07-09T09:10:15.568Z,101345.16
2018-07-09T09:12:42.614Z,101336.98
2018-07-09T09:15:09.797Z,101340.44
2018-07-09T09:17:36.874Z,101351.61
2018-07-09T09:20:03.953Z,101358.48
2018-07-09T09:22:31.046Z,101354.52
2018-07-09T09:24:58.094Z,101339.98
2018-07-09T09:27:25.298Z,101348.87
2018-07-09T09:29:52.336Z,101349.47
2018-07-09T09:32:19.409Z,101354.45
2018-07-09T09:34:46.438Z,101343.45
2018-07-09T09:37:13.583Z,101345.30
2018-07-09T09:39:40.642Z,101350.87
2018-07-09T09:42:07.732Z,101342.83
2018-07-09T09:44:35.954Z,101341.41
2018-07-09T09:47:03.102Z,101347.84
2018-07-09T09:49:30.388Z,101343.95
2018-07-09T09:51:57.485Z,101344.31
2018-07-09T09:54:24.693Z,101356.75
2018-07-09T09:56:51.849Z,101353.97
2018-07-09T09:59:18.913Z,101347.16
2018-07-09T10:01:45.965Z,101343.33
2018-07-09T10:04:12.980Z,101358.95
2018-07-09T10:06:40.007Z,101348.58
2018-07-09T10:09:07.574Z,101352.42
2018-07-09T10:11:34.630Z,101348.00
2018-07-09T10:14:01.746Z,101342.42
2018-07-09T10:16:28.866Z,101350.84
2018-07-09T10:18:56.797Z,101347.97
2018-07-09T10:21:23.901Z,101335.02
2018-07-09T10:23:51.024Z,101347.03
2018-07-09T10:26:18.445Z,101331.29
2018-07-09T10:28:45.489Z,101339.05
2018-07-09T10:31:12.670Z,101340.67
2018-07-09T10:33:39.721Z,101344.44
2018-07-09T10:36:07.334Z,101346.78
2018-07-09T10:38:34.427Z,101348.02
2018-07-09T10:41:01.511Z,101347.56
2018-07-09T10:43:28.548Z,101349.56
2018-07-09T10:45:55.655Z,101347.93
2018-07-09T10:48:22.721Z,101353.83
2018-07-09T10:50:49.784Z,101363.44
2018-07-09T10:53:16.931Z,101346.82
2018-07-09T10:55:44.648Z,101355.92
2018-07-09T10:58:11.657Z,101349.70
2018-07-09T11:00:38.808Z,101344.05
2018-07-09T11:03:05.943Z,101359.69
2018-07-09T11:05:33.010Z,101349.90
2018-07-09T11:08:00.275Z,101351.45
2018-07-09T11:10:27.364Z,101341.27
2018-07-09T11:12:54.530Z,101343.82
2018-07-09T11:15:21.556Z,101336.80
2018-07-09T11:17:48.565Z,101348.05
2018-07-09T11:20:15.652Z,101354.00
2018-07-09T11:22:42.732Z,101343.62
2018-07-09T11:25:09.798Z,101339.53
2018-07-09T11:27:36.950Z,101353.36
2018-07-09T11:30:04.930Z,101344.20
2018-07-09T11:32:32.119Z,101354.97
2018-07-09T11:34:59.763Z,101352.70
2018-07-09T11:37:26.867Z,101348.69
2018-07-09T11:39:53.943Z,101360.98
2018-07-09T11:42:21.087Z,101345.05
2018-07-09T11:44:55.513Z,101347.46
2018-07-09T11:47:25.678Z,101343.24
2018-07-09T11:49:52.739Z,101342.53
2018-07-09T11:52:19.793Z,101338.98
2018-07-09T11:54:46.884Z,101345.06
2018-07-09T11:57:14.009Z,101353.62
2018-07-09T11:59:41.092Z,101350.67
2018-07-09T12:02:09.095Z,101342.67
2018-07-09T12:04:36.162Z,101345.22
2018-07-09T12:07:03.257Z,101351.70
2018-07-09T12:09:31.024Z,101343.53
2018-07-09T12:11:58.094Z,101347.97
2018-07-09T12:14:25.163Z,101345.20
2018-07-09T12:16:52.434Z,101348.95
2018-07-09T12:19:19.630Z,101341.64
2018-07-09T12:21:46.818Z,101345.77
2018-07-09T12:24:14.126Z,101329.08
2018-07-09T12:26:41.212Z,101337.98
2018-07-09T12:29:08.334Z,101342.73
2018-07-09T12:31:35.429Z,101342.89
2018-07-09T12:34:02.501Z,101333.88
2018-07-09T12:36:29.788Z,101336.05
2018-07-09T12:38:56.895Z,101338.84
2018-07-09T12:41:24.072Z,101328.65
2018-07-09T12:43:51.184Z,101331.53
2018-07-09T12:46:18.243Z,101344.92
2018-07-09T12:48:45.316Z,101328.63
2018-07-09T12:51:12.719Z,101341.52
2018-07-09T12:53:39.808Z,101334.35
2018-07-09T12:56:06.887Z,101339.01
2018-07-09T12:58:33.983Z,101338.98
2018-07-09T13:01:01.091Z,101332.58
2018-07-09T13:03:28.225Z,101343.50
2018-07-09T13:05:55.343Z,101342.32
2018-07-09T13:08:22.442Z,101351.84
2018-07-09T13:10:49.535Z,101341.75
2018-07-09T13:13:16.638Z,101348.36
2018-07-09T13:15:43.724Z,101341.67
2018-07-09T13:18:10.794Z,101347.97
2018-07-09T13:20:37.899Z,101351.45
2018-07-09T13:23:05.050Z,101350.17
2018-07-09T13:25:32.140Z,101354.12
2018-07-09T13:27:59.256Z,101350.86
2018-07-09T13:30:26.332Z,101357.79
2018-07-09T13:32:53.372Z,101241.06
2018-07-09T13:35:20.533Z,101337.59
2018-07-09T13:37:47.656Z,101331.98
2018-07-09T13:40:14.785Z,101342.00
2018-07-09T13:42:41.905Z,101344.43
2018-07-09T13:45:08.988Z,101336.92
2018-07-09T13:47:36.051Z,101341.86
2018-07-09T13:50:03.391Z,101353.56
2018-07-09T13:52:30.579Z,101338.31
2018-07-09T13:54:57.746Z,101347.22
2018-07-09T13:57:24.819Z,101333.78
2018-07-09T13:59:51.927Z,101334.51
2018-07-09T14:02:19.826Z,101330.21
2018-07-09T14:04:46.895Z,101339.80
2018-07-09T14:07:14.017Z,101331.80
2018-07-09T14:09:41.135Z,101333.98
2018-07-09T14:12:08.243Z,101317.88
2018-07-09T14:14:35.341Z,101324.30
2018-07-09T14:17:02.458Z,101313.35
2018-07-09T14:20:39.855Z,101318.09
2018-07-09T14:23:08.059Z,101319.37
2018-07-09T14:25:35.264Z,101316.38
2018-07-09T14:28:02.454Z,101312.70
2018-07-09T14:30:29.563Z,101305.90
2018-07-09T14:32:56.650Z,101304.67
2018-07-09T14:35:23.936Z,101305.88
2018-07-09T14:37:52.570Z,101303.14
2018-07-09T14:40:19.794Z,101295.44
2018-07-09T14:42:46.892Z,101287.09
2018-07-09T14:45:14.121Z,101294.01
2018-07-09T14:47:41.161Z,101281.23
2018-07-09T14:50:08.616Z,101281.92
2018-07-09T14:52:35.736Z,101286.73
2018-07-09T14:55:02.942Z,101283.70
2018-07-09T14:57:30.071Z,101272.18
2018-07-09T14:59:57.143Z,101280.30
2018-07-09T15:02:24.266Z,101268.16
2018-07-09T15:04:51.764Z,101265.23
2018-07-09T15:07:18.888Z,101278.63
2018-07-09T15:09:46.023Z,101278.20
2018-07-09T15:12:13.183Z,101272.34
2018-07-09T15:14:40.292Z,101276.16
2018-07-09T15:17:07.766Z,101280.35
2018-07-09T15:19:34.889Z,101263.44
2018-07-09T15:22:02.007Z,101264.01
2018-07-09T15:24:29.111Z,101253.89
2018-07-09T15:26:56.211Z,101253.51
2018-07-09T15:29:23.362Z,101229.75
2018-07-09T15:32:02.102Z,101237.31
2018-07-09T15:34:29.178Z,101240.89
2018-07-09T15:36:56.282Z,101240.37
2018-07-09T15:39:23.369Z,101231.93
2018-07-09T15:41:50.462Z,101244.53
2018-07-09T15:44:17.630Z,101236.95
2018-07-09T15:46:44.787Z,101229.38
2018-07-09T15:49:11.939Z,101225.09
2018-07-09T15:51:39.044Z,101220.37
2018-07-09T15:54:06.118Z,101219.20
2018-07-09T15:56:33.259Z,101224.67
2018-07-09T15:59:00.330Z,101222.59
2018-07-09T16:01:28.004Z,101220.88
2018-07-09T16:03:55.157Z,101235.55
2018-07-09T16:06:22.658Z,101227.31
2018-07-09T16:08:49.767Z,101224.98
2018-07-09T16:11:18.104Z,101222.70
2018-07-09T16:13:45.393Z,101206.28
2018-07-09T16:16:13.406Z,101211.75
2018-07-09T16:18:40.962Z,101205.55
2018-07-09T16:21:08.439Z,101207.69
2018-07-09T16:23:35.866Z,101187.62
2018-07-09T16:26:03.353Z,101212.13
2018-07-09T16:28:30.474Z,101201.66
2018-07-09T16:30:57.586Z,101212.50
2018-07-09T16:33:24.719Z,101218.98
2018-07-09T16:35:51.799Z,101205.29
2018-07-09T16:38:18.887Z,101198.45
2018-07-09T16:40:46.046Z,101205.08
2018-07-09T16:43:13.138Z,101196.20
2018-07-09T16:45:40.223Z,101189.98
2018-07-09T16:48:07.413Z,101181.86
2018-07-09T16:50:34.525Z,101188.16
2018-07-09T16:53:01.624Z,101183.67
2018-07-09T16:55:29.127Z,101188.48
2018-07-09T16:57:56.850Z,101182.28
2018-07-09T17:00:23.965Z,101180.59
2018-07-09T17:02:51.187Z,101179.84
2018-07-09T17:05:18.288Z,101179.38
2018-07-09T17:07:45.400Z,101189.45
2018-07-09T17:10:12.527Z,101171.80
2018-07-09T17:12:39.895Z,101163.94
2018-07-09T17:15:07.006Z,101173.02
2018-07-09T17:17:34.149Z,101174.95
2018-07-09T17:20:01.272Z,101168.17
2018-07-09T17:22:28.369Z,101175.82
2018-07-09T17:24:55.448Z,101163.56
2018-07-09T17:27:22.661Z,101162.61
2018-07-09T17:29:49.765Z,101160.58
2018-07-09T17:32:16.838Z,101163.20
2018-07-09T17:34:44.003Z,101154.10
2018-07-09T17:37:11.099Z,101159.83
2018-07-09T17:39:38.246Z,101153.75
2018-07-09T17:42:05.563Z,101156.72
2018-07-09T17:44:32.681Z,101167.20
2018-07-09T17:46:59.743Z,101163.06
2018-07-09T17:49:26.855Z,101157.62
2018-07-09T17:51:53.951Z,101144.83
2018-07-09T17:54:21.347Z,101153.13
2018-07-09T17:56:48.420Z,101158.44
2018-07-09T17:59:15.543Z,101154.54
2018-07-09T18:01:42.747Z,101140.38
2018-07-09T18:04:09.824Z,101151.37
2018-07-09T18:06:36.934Z,101161.55
2018-07-09T18:09:04.976Z,101159.97
2018-07-09T18:11:32.056Z,101169.00
2018-07-09T18:13:59.190Z,101160.79
2018-07-09T18:16:26.485Z,101144.66
2018-07-09T18:18:53.569Z,101149.49
2018-07-09T18:21:20.705Z,101153.98
2018-07-09T18:23:47.796Z,101157.56
2018-07-09T18:26:14.877Z,101174.69
2018-07-09T18:28:41.966Z,101167.41
2018-07-09T18:31:09.110Z,101154.93
2018-07-09T18:33:36.240Z,101163.61
2018-07-09T18:36:03.452Z,101175.32
2018-07-09T18:38:32.388Z,101170.52
2018-07-09T18:40:59.491Z,101174.14
2018-07-09T18:43:27.030Z,101160.06
2018-07-09T18:45:54.137Z,101156.84
2018-07-09T18:48:22.064Z,101164.83
2018-07-09T18:50:49.199Z,101166.15
2018-07-09T18:53:16.303Z,101166.41
2018-07-09T18:55:43.524Z,101161.88
2018-07-09T18:58:10.601Z,101153.20
2018-07-09T19:00:37.739Z,101154.31
2018-07-09T19:03:05.194Z,101148.32
2018-07-09T19:06:46.778Z,101137.09
2018-07-09T19:09:13.936Z,101147.52
2018-07-09T19:11:41.728Z,101144.05
2018-07-09T19:14:09.400Z,101138.67
2018-07-09T19:16:48.321Z,101147.11
2018-07-09T19:19:26.995Z,101142.06
2018-07-09T19:22:00.199Z,101126.36
2018-07-09T19:24:26.655Z,101132.81
2018-07-09T19:26:53.102Z,101123.20
2018-07-09T19:29:19.211Z,101119.48
2018-07-09T19:31:45.321Z,101117.19
2018-07-09T19:34:11.459Z,101121.61
2018-07-09T19:36:37.671Z,101121.92
2018-07-09T19:39:04.542Z,101115.67
2018-07-09T19:41:30.711Z,101123.34
2018-07-09T19:43:56.770Z,101112.04
2018-07-09T19:46:22.924Z,101122.55
2018-07-09T19:48:49.059Z,101121.69
2018-07-09T19:51:15.203Z,101117.50
2018-07-09T19:53:41.494Z,101115.84
2018-07-09T19:56:07.620Z,101118.13
2018-07-09T19:58:33.720Z,101114.17
2018-07-09T20:00:59.881Z,101119.06
2018-07-09T20:03:26.075Z,101118.99
2018-07-09T20:05:52.249Z,101112.69
2018-07-09T20:08:18.396Z,101109.98
2018-07-09T20:10:50.343Z,101106.59
2018-07-09T20:13:22.148Z,101107.56
2018-07-09T20:15:53.877Z,101116.55
2018-07-09T20:18:19.994Z,101111.64
2018-07-09T20:20:46.122Z,101114.52
2018-07-09T20:23:12.227Z,101114.34
2018-07-09T20:28:04.499Z,101109.27
2018-07-09T20:30:30.607Z,101112.92
2018-07-09T20:32:56.843Z,101104.71
2018-07-09T20:35:22.982Z,101101.13
2018-07-09T20:37:49.082Z,101102.22
2018-07-09T20:40:15.272Z,101095.05
2018-07-09T20:42:41.419Z,101092.32
2018-07-09T20:45:07.530Z,101087.27
2018-07-09T20:47:33.964Z,101083.95
2018-07-09T20:50:00.115Z,101090.66
2018-07-09T20:52:26.285Z,101091.02
2018-07-09T20:54:52.400Z,101091.39
2018-07-09T20:57:18.780Z,101090.89
2018-07-09T20:59:44.893Z,101090.86
2018-07-09T21:02:11.007Z,101089.16
2018-07-09T21:04:37.141Z,101086.80
2018-07-09T21:07:03.680Z,101091.69
2018-07-09T21:09:30.890Z,101086.53
2018-07-09T21:11:57.643Z,101085.84
2018-07-09T21:14:23.791Z,101076.66
2018-07-09T21:16:50.008Z,101074.64
2018-07-09T21:19:16.133Z,101069.16
2018-07-09T21:21:42.279Z,101068.45
2018-07-09T21:24:08.438Z,101071.74
2018-07-09T21:26:34.574Z,101073.50
2018-07-09T21:29:00.687Z,101072.25
2018-07-09T21:31:26.828Z,101067.30
2018-07-09T21:33:52.990Z,101066.56
2018-07-09T21:36:19.093Z,101060.71
2018-07-09T21:38:45.220Z,101049.94
2018-07-09T21:41:11.792Z,101050.34
2018-07-09T21:43:38.156Z,101035.42
2018-07-09T21:46:04.399Z,101028.98
2018-07-09T21:48:30.951Z,101023.19
2018-07-09T21:50:56.998Z,101017.63
2018-07-09T21:53:24.084Z,101005.46
2018-07-09T21:55:50.316Z,101000.75
2018-07-09T21:58:16.431Z,100989.52
2018-07-09T22:00:42.563Z,101005.23
2018-07-09T22:03:08.693Z,101013.56
2018-07-09T22:05:34.841Z,100998.44
2018-07-09T22:08:00.993Z,100998.77
2018-07-09T22:10:27.109Z,100989.02
2018-07-09T22:12:53.222Z,100990.10
2018-07-09T22:15:19.369Z,100996.26
2018-07-09T22:17:45.487Z,101000.86
2018-07-09T22:20:11.613Z,101000.19
2018-07-09T22:22:37.704Z,100994.19
2018-07-09T22:27:36.996Z,100991.42
2018-07-09T22:30:03.104Z,100991.98
2018-07-09T22:32:30.219Z,100991.58
2018-07-09T22:34:57.329Z,100985.31
2018-07-09T22:37:24.455Z,100980.24
2018-07-09T22:39:51.573Z,100983.95
2018-07-09T22:42:19.156Z,100978.94
2018-07-09T22:44:46.377Z,100975.34
2018-07-09T22:47:13.462Z,100967.83
2018-07-09T22:49:40.604Z,100964.08
2018-07-09T22:52:07.871Z,100967.89
2018-07-09T22:54:35.318Z,100965.27
2018-07-09T22:57:02.460Z,100973.72
2018-07-09T22:59:29.626Z,100970.70
2018-07-09T23:01:56.754Z,100973.78
2018-07-09T23:04:24.109Z,100977.75
2018-07-09T23:06:51.184Z,100980.97
2018-07-09T23:10:04.212Z,100975.05
2018-07-09T23:13:42.381Z,100979.62
2018-07-09T23:16:49.338Z,100987.35
2018-07-09T23:19:30.146Z,100986.45
2018-07-09T23:22:21.013Z,100981.24
2018-07-09T23:24:47.147Z,100981.16
2018-07-09T23:27:13.374Z,100986.80
2018-07-09T23:29:39.523Z,100986.02
2018-07-09T23:32:05.619Z,100977.02
2018-07-09T23:34:31.776Z,100970.83
2018-07-09T23:36:57.866Z,100966.80
2018-07-09T23:39:24.009Z,100971.51
2018-07-09T23:41:50.149Z,100962.88
2018-07-09T23:44:16.268Z,100966.00
2018-07-09T23:46:42.354Z,100963.12
2018-07-09T23:49:08.500Z,100955.94
2018-07-09T23:51:34.977Z,100958.84
2018-07-09T23:54:01.093Z,100958.45
2018-07-09T23:57:12.384Z,100964.56
2018-07-09T23:59:51.655Z,100964.95
